Time;durP1;ratioP1;P1;durP2;ratioP2;P2;SDS_P1;SDS_P2;PMS_P1;PMS_P2;Temp;Humidity;BMP_temperature;BMP_pressure;BME280_temperature;BME280_humidity;BME280_pressure;Samples;Min_cycle;Max_cycle;Signal;HPM_P1;HPM_P2
2022/06/23 00:01:30;;;;;;;0.00;0.00;;;;;;;;;;5037782;28;92346;-73
2022/06/23 00:03:57;;;;;;;0.35;0.35;;;;;;;;;;5038598;28;92846;-74
2022/06/23 00:06:32;;;;;;;0.00;0.00;;;;;;;;;;5041384;28;93436;-74
2022/06/23 00:08:59;;;;;;;0.00;0.00;;;;;;;;;;5038820;28;92680;-73
2022/06/23 00:11:26;;;;;;;0.00;0.00;;;;;;;;;;5038109;28;93625;-73
2022/06/23 00:14:05;;;;;;;0.90;0.90;;;;;;;;;;5037719;28;92362;-75
2022/06/23 00:16:32;;;;;;;0.00;0.00;;;;;;;;;;5037361;28;94506;-74
2022/06/23 00:18:58;;;;;;;0.00;0.00;;;;;;;;;;5037872;28;93858;-73
2022/06/23 00:21:28;;;;;;;0.00;0.00;;;;;;;;;;5020240;28;92378;-73
2022/06/23 00:23:59;;;;;;;0.10;0.10;;;;;;;;;;5020170;28;95071;-73
2022/06/23 00:26:27;;;;;;;0.00;0.00;;;;;;;;;;5037622;28;93691;-73
2022/06/23 00:29:01;;;;;;;0.00;0.00;;;;;;;;;;5041044;28;92170;-73
2022/06/23 00:31:31;;;;;;;0.00;0.00;;;;;;;;;;5038113;28;93593;-73
2022/06/23 00:33:59;;;;;;;0.15;0.15;;;;;;;;;;5038565;28;91475;-73
2022/06/23 00:36:37;;;;;;;0.00;0.00;;;;;;;;;;5037848;27;93135;-73
2022/06/23 00:39:04;;;;;;;0.00;0.00;;;;;;;;;;5037382;28;93069;-74
2022/06/23 00:41:35;;;;;;;0.00;0.00;;;;;;;;;;5018494;28;94805;-74
2022/06/23 00:44:07;;;;;;;0.00;0.00;;;;;;;;;;5037769;28;95631;-73
2022/06/23 00:46:33;;;;;;;;;;;;;;;;;;5019977;28;94815;-73
2022/06/23 00:49:22;;;;;;;0.00;0.00;;;;;;;;;;5040009;28;117432;-73
2022/06/23 00:51:52;;;;;;;0.25;0.25;;;;;;;;;;5037451;28;93601;-73
2022/06/23 00:54:21;;;;;;;0.00;0.00;;;;;;;;;;5037613;28;94392;-72
2022/06/23 00:57:06;;;;;;;0.00;0.00;;;;;;;;;;5037747;28;93390;-72
2022/06/23 00:59:39;;;;;;;0.00;0.00;;;;;;;;;;5037949;28;92808;-73
2022/06/23 01:02:16;;;;;;;0.00;0.00;;;;;;;;;;5037388;28;92561;-74
2022/06/23 01:04:42;;;;;;;0.00;0.00;;;;;;;;;;5037602;28;93360;-73
2022/06/23 01:07:26;;;;;;;0.00;0.00;;;;;;;;;;5035511;28;95986;-73
2022/06/23 01:09:56;;;;;;;0.00;0.00;;;;;;;;;;5037635;28;92295;-73
2022/06/23 01:12:25;;;;;;;0.00;0.00;;;;;;;;;;5040053;28;92527;-73
2022/06/23 01:14:55;;;;;;;0.00;0.00;;;;;;;;;;5037648;28;92350;-72
2022/06/23 01:17:50;;;;;;;0.00;0.00;;;;;;;;;;5037516;28;93519;-73
2022/06/23 01:20:26;;;;;;;0.00;0.00;;;;;;;;;;5015616;28;93472;-73
2022/06/23 01:22:59;;;;;;;0.00;0.00;;;;;;;;;;5036927;28;92330;-74
2022/06/23 01:25:46;;;;;;;0.00;0.00;;;;;;;;;;5037769;28;93233;-74
2022/06/23 01:28:15;;;;;;;0.00;0.00;;;;;;;;;;5037219;28;94164;-74
2022/06/23 01:30:49;;;;;;;0.10;0.10;;;;;;;;;;5036915;28;93179;-73
2022/06/23 01:33:18;;;;;;;0.00;0.00;;;;;;;;;;5035251;28;94707;-73
2022/06/23 01:36:08;;;;;;;0.00;0.00;;;;;;;;;;5040182;28;93507;-73
2022/06/23 01:38:54;;;;;;;0.00;0.00;;;;;;;;;;5036766;28;93384;-73
2022/06/23 01:41:31;;;;;;;0.00;0.00;;;;;;;;;;5036974;28;93647;-74
2022/06/23 01:44:04;;;;;;;0.00;0.00;;;;;;;;;;5036896;28;92150;-73
2022/06/23 01:46:37;;;;;;;0.00;0.00;;;;;;;;;;5037162;28;93277;-73
2022/06/23 01:49:12;;;;;;;0.00;0.00;;;;;;;;;;5039690;27;93888;-73
2022/06/23 01:51:40;;;;;;;0.00;0.00;;;;;;;;;;5041241;28;91667;-73
2022/06/23 01:54:22;;;;;;;0.00;0.00;;;;;;;;;;5040052;28;92314;-73
2022/06/23 01:56:55;;;;;;;0.00;0.00;;;;;;;;;;5040123;28;93485;-74
2022/06/23 01:59:21;;;;;;;0.00;0.00;;;;;;;;;;5042023;28;94752;-73
2022/06/23 02:01:48;;;;;;;0.00;0.00;;;;;;;;;;5040137;28;93450;-74
2022/06/23 02:04:18;;;;;;;0.00;0.00;;;;;;;;;;5039686;28;92845;-73
2022/06/23 02:06:49;;;;;;;0.00;0.00;;;;;;;;;;5040314;28;93409;-73
2022/06/23 02:09:24;;;;;;;0.10;0.10;;;;;;;;;;5040214;28;93769;-73
2022/06/23 02:11:51;;;;;;;0.00;0.00;;;;;;;;;;5039808;28;92381;-73
2022/06/23 02:14:37;;;;;;;0.00;0.00;;;;;;;;;;5040393;28;93306;-74
2022/06/23 02:17:12;;;;;;;0.00;0.00;;;;;;;;;;5022624;28;94726;-74
2022/06/23 02:19:49;;;;;;;0.00;0.00;;;;;;;;;;5039894;28;92338;-74
2022/06/23 02:22:18;;;;;;;0.00;0.00;;;;;;;;;;5043282;28;92566;-74
2022/06/23 02:24:56;;;;;;;0.00;0.00;;;;;;;;;;5038638;28;95149;-74
2022/06/23 02:27:32;;;;;;;0.00;0.00;;;;;;;;;;5039881;28;96083;-74
2022/06/23 02:30:04;;;;;;;0.00;0.00;;;;;;;;;;5021831;28;93719;-74
2022/06/23 02:32:33;;;;;;;0.00;0.00;;;;;;;;;;5039945;28;92206;-75
2022/06/23 02:35:18;;;;;;;0.00;0.00;;;;;;;;;;5039559;28;92292;-74
2022/06/23 02:38:02;;;;;;;0.00;0.00;;;;;;;;;;5039520;28;93138;-74
2022/06/23 02:40:34;;;;;;;0.00;0.00;;;;;;;;;;5039914;28;92755;-74
2022/06/23 02:43:13;;;;;;;0.00;0.00;;;;;;;;;;5043183;28;92785;-74
2022/06/23 02:46:01;;;;;;;0.00;0.00;;;;;;;;;;5039765;28;93125;-75
2022/06/23 02:48:27;;;;;;;0.00;0.00;;;;;;;;;;4988724;28;93194;-74
2022/06/23 02:51:00;;;;;;;0.00;0.00;;;;;;;;;;5037793;28;96123;-74
2022/06/23 02:53:26;;;;;;;0.00;0.00;;;;;;;;;;5039599;28;92303;-74
2022/06/23 02:56:03;;;;;;;0.00;0.00;;;;;;;;;;5021443;28;95271;-74
2022/06/23 02:58:34;;;;;;;0.20;0.20;;;;;;;;;;5039351;28;93914;-74
2022/06/23 03:01:12;;;;;;;0.00;0.00;;;;;;;;;;5037711;27;92490;-74
2022/06/23 03:03:45;;;;;;;0.00;0.00;;;;;;;;;;5039568;28;92508;-74
2022/06/23 03:06:35;;;;;;;0.00;0.00;;;;;;;;;;5042387;28;93805;-74
2022/06/23 03:09:10;;;;;;;0.00;0.00;;;;;;;;;;5039635;28;93449;-73
2022/06/23 03:11:51;;;;;;;0.00;0.00;;;;;;;;;;5021235;28;93631;-74
2022/06/23 03:14:37;;;;;;;0.00;0.00;;;;;;;;;;5039360;28;92244;-74
2022/06/23 03:17:09;;;;;;;0.00;0.00;;;;;;;;;;5019695;28;95503;-74
2022/06/23 03:19:38;;;;;;;0.00;0.00;;;;;;;;;;5038487;28;93699;-73
2022/06/23 03:22:10;;;;;;;0.00;0.00;;;;;;;;;;5039186;28;92340;-73
2022/06/23 03:24:41;;;;;;;0.00;0.00;;;;;;;;;;5038771;28;93273;-77
2022/06/23 03:27:17;;;;;;;0.00;0.00;;;;;;;;;;5038766;28;93767;-76
2022/06/23 03:29:46;;;;;;;0.00;0.00;;;;;;;;;;5042251;28;92165;-76
2022/06/23 03:32:22;;;;;;;0.00;0.00;;;;;;;;;;5038434;28;93862;-76
2022/06/23 03:35:07;;;;;;;0.00;0.00;;;;;;;;;;5039460;28;91679;-74
2022/06/23 03:37:33;;;;;;;0.00;0.00;;;;;;;;;;5039017;28;92985;-77
2022/06/23 03:43:08;;;;;;;0.00;0.00;;;;;;;;;;5037237;28;94709;-75
2022/06/23 03:45:45;;;;;;;0.00;0.00;;;;;;;;;;5038498;28;95714;-75
2022/06/23 03:48:16;;;;;;;0.10;0.10;;;;;;;;;;5038840;28;93066;-75
2022/06/23 03:50:52;;;;;;;0.00;0.00;;;;;;;;;;5020825;28;92464;-75
2022/06/23 03:53:21;;;;;;;0.00;0.00;;;;;;;;;;5041858;28;93243;-75
2022/06/23 03:55:49;;;;;;;0.00;0.00;;;;;;;;;;5038605;28;92378;-75
2022/06/23 03:58:28;;;;;;;0.00;0.00;;;;;;;;;;5038346;28;95052;-76
2022/06/23 04:00:54;;;;;;;0.00;0.00;;;;;;;;;;5039390;28;92644;-76
2022/06/23 04:03:27;;;;;;;0.00;0.00;;;;;;;;;;5038879;28;92426;-75
2022/06/23 04:05:54;;;;;;;0.10;0.10;;;;;;;;;;5038205;28;93211;-74
2022/06/23 04:08:26;;;;;;;0.00;0.00;;;;;;;;;;5019071;28;96325;-75
2022/06/23 04:10:53;;;;;;;0.00;0.00;;;;;;;;;;5020421;28;92162;-75
2022/06/23 04:13:22;;;;;;;0.10;0.10;;;;;;;;;;5038436;28;92372;-74
2022/06/23 04:15:49;;;;;;;0.10;0.10;;;;;;;;;;5041165;28;93498;-76
2022/06/23 04:18:23;;;;;;;0.00;0.00;;;;;;;;;;5038150;28;93256;-75
2022/06/23 04:20:57;;;;;;;0.10;0.10;;;;;;;;;;5037976;28;93185;-75
2022/06/23 04:23:28;;;;;;;0.00;0.00;;;;;;;;;;5038469;28;92168;-75
2022/06/23 04:26:06;;;;;;;0.00;0.00;;;;;;;;;;5038524;28;93726;-75
2022/06/23 04:28:36;;;;;;;0.10;0.10;;;;;;;;;;5037644;28;93491;-74
2022/06/23 04:31:05;;;;;;;0.22;0.22;;;;;;;;;;5037929;28;92208;-75
2022/06/23 04:33:35;;;;;;;0.00;0.00;;;;;;;;;;5036602;28;94760;-75
2022/06/23 04:36:02;;;;;;;0.00;0.00;;;;;;;;;;5037861;28;93530;-75
2022/06/23 04:38:41;;;;;;;0.00;0.00;;;;;;;;;;5022952;28;92509;-75
2022/06/23 04:41:14;;;;;;;0.00;0.00;;;;;;;;;;5037220;28;93411;-74
2022/06/23 04:43:44;;;;;;;0.00;0.00;;;;;;;;;;5037741;28;92800;-75
2022/06/23 04:46:37;;;;;;;0.00;0.00;;;;;;;;;;5037871;28;93732;-75
2022/06/23 04:49:14;;;;;;;0.00;0.00;;;;;;;;;;5032972;28;93423;-75
2022/06/23 04:51:47;;;;;;;0.00;0.00;;;;;;;;;;5037847;28;93178;-75
2022/06/23 04:54:13;;;;;;;0.35;0.35;;;;;;;;;;5037684;28;92298;-75
2022/06/23 04:56:39;;;;;;;0.05;0.05;;;;;;;;;;5037640;28;92944;-74
2022/06/23 04:59:13;;;;;;;0.00;0.00;;;;;;;;;;5039471;28;94556;-74
2022/06/23 05:01:42;;;;;;;0.30;0.30;;;;;;;;;;5037038;28;92924;-74
2022/06/23 05:04:15;;;;;;;0.10;0.10;;;;;;;;;;5019749;28;92468;-75
2022/06/23 05:06:43;;;;;;;0.00;0.00;;;;;;;;;;5037333;28;93421;-74
2022/06/23 05:09:22;;;;;;;0.00;0.00;;;;;;;;;;5037351;28;93623;-75
2022/06/23 05:11:50;;;;;;;0.00;0.00;;;;;;;;;;5037536;28;92246;-74
2022/06/23 05:14:20;;;;;;;1.65;0.38;;;;;;;;;;5037055;28;93473;-75
2022/06/23 05:16:51;;;;;;;0.00;0.00;;;;;;;;;;5037762;28;92983;-74
2022/06/23 05:19:26;;;;;;;0.17;0.17;;;;;;;;;;5037311;28;92257;-75
2022/06/23 05:21:56;;;;;;;0.03;0.03;;;;;;;;;;5040524;28;92663;-74
2022/06/23 05:24:24;;;;;;;0.00;0.00;;;;;;;;;;5034721;28;94652;-74
2022/06/23 05:26:59;;;;;;;0.10;0.10;;;;;;;;;;5036896;28;95761;-75
2022/06/23 05:29:34;;;;;;;0.10;0.10;;;;;;;;;;5037455;28;93461;-75
2022/06/23 05:32:04;;;;;;;0.38;0.30;;;;;;;;;;5037139;28;92280;-75
2022/06/23 05:34:31;;;;;;;0.10;0.10;;;;;;;;;;5037056;28;93404;-75
2022/06/23 05:37:10;;;;;;;0.15;0.15;;;;;;;;;;5037012;28;93689;-76
2022/06/23 05:39:46;;;;;;;0.10;0.10;;;;;;;;;;5036855;28;92327;-74
2022/06/23 05:42:16;;;;;;;0.10;0.10;;;;;;;;;;5037610;28;92730;-75
2022/06/23 05:44:47;;;;;;;0.17;0.17;;;;;;;;;;5039900;28;93713;-74
2022/06/23 05:47:14;;;;;;;0.10;0.10;;;;;;;;;;5037071;28;93846;-75
2022/06/23 05:49:43;;;;;;;0.00;0.00;;;;;;;;;;5035153;28;96032;-74
2022/06/23 05:52:14;;;;;;;0.15;0.15;;;;;;;;;;5036561;28;92360;-73
2022/06/23 05:54:46;;;;;;;0.00;0.00;;;;;;;;;;5037082;28;93037;-74
2022/06/23 05:57:33;;;;;;;0.10;0.10;;;;;;;;;;5036510;28;93862;-73
2022/06/23 06:00:07;;;;;;;0.10;0.10;;;;;;;;;;5036357;28;92205;-73
2022/06/23 06:02:38;;;;;;;0.10;0.10;;;;;;;;;;5036500;28;93174;-71
2022/06/23 06:05:05;;;;;;;0.10;0.10;;;;;;;;;;5040142;27;93733;-73
2022/06/23 06:07:36;;;;;;;0.55;0.35;;;;;;;;;;5045303;27;91542;-71
2022/06/23 06:10:05;;;;;;;0.10;0.10;;;;;;;;;;5018644;28;93762;-71
2022/06/23 06:12:33;;;;;;;0.10;0.10;;;;;;;;;;5036588;28;92324;-71
2022/06/23 06:15:04;;;;;;;0.10;0.10;;;;;;;;;;5034694;28;94742;-72
2022/06/23 06:17:32;;;;;;;0.10;0.10;;;;;;;;;;5018989;28;93411;-72
2022/06/23 06:20:01;;;;;;;0.10;0.10;;;;;;;;;;5018416;28;92377;-72
2022/06/23 06:22:30;;;;;;;0.32;0.32;;;;;;;;;;5036240;28;94178;-72
2022/06/23 06:24:58;;;;;;;0.10;0.10;;;;;;;;;;5036454;28;93447;-71
2022/06/23 06:27:24;;;;;;;0.10;0.10;;;;;;;;;;5040914;27;92598;-71
2022/06/23 06:29:52;;;;;;;0.10;0.10;;;;;;;;;;5053708;27;93236;-71
2022/06/23 06:32:21;;;;;;;0.10;0.10;;;;;;;;;;5057167;27;91611;-72
2022/06/23 06:34:50;;;;;;;0.10;0.10;;;;;;;;;;5058255;27;92873;-71
2022/06/23 06:37:18;;;;;;;0.10;0.10;;;;;;;;;;5060145;27;93820;-72
2022/06/23 06:39:48;;;;;;;0.20;0.20;;;;;;;;;;5058383;27;94709;-73
2022/06/23 06:42:17;;;;;;;0.10;0.10;;;;;;;;;;5059747;27;96526;-71
2022/06/23 06:44:45;;;;;;;0.10;0.10;;;;;;;;;;5051112;27;92870;-73
2022/06/23 06:47:20;;;;;;;0.10;0.10;;;;;;;;;;5038944;27;92373;-71
2022/06/23 06:49:47;;;;;;;0.10;0.10;;;;;;;;;;5038889;27;92890;-74
2022/06/23 06:52:13;;;;;;;0.10;0.10;;;;;;;;;;5042557;27;93531;-72
2022/06/23 06:54:48;;;;;;;0.10;0.10;;;;;;;;;;5039869;27;93259;-73
2022/06/23 06:57:29;;;;;;;0.13;0.13;;;;;;;;;;5039344;27;92958;-73
2022/06/23 06:59:59;;;;;;;0.10;0.10;;;;;;;;;;5038503;27;92405;-73
2022/06/23 07:02:34;;;;;;;0.10;0.10;;;;;;;;;;5038571;27;92957;-72
2022/06/23 07:05:17;;;;;;;0.10;0.10;;;;;;;;;;5039176;27;96019;-72
2022/06/23 07:07:47;;;;;;;0.10;0.10;;;;;;;;;;5038539;27;92404;-72
2022/06/23 07:10:20;;;;;;;0.20;0.20;;;;;;;;;;5038720;27;92771;-72
2022/06/23 07:12:52;;;;;;;0.10;0.10;;;;;;;;;;5041300;27;93653;-75
2022/06/23 07:15:21;;;;;;;0.10;0.10;;;;;;;;;;5041140;27;93337;-72
2022/06/23 07:18:07;;;;;;;0.10;0.10;;;;;;;;;;5025248;28;95014;-72
2022/06/23 07:20:42;;;;;;;0.10;0.10;;;;;;;;;;5020318;27;92373;-73
2022/06/23 07:23:38;;;;;;;0.65;0.30;;;;;;;;;;5038952;27;92834;-73
2022/06/23 07:26:24;;;;;;;0.10;0.10;;;;;;;;;;5023373;27;93918;-76
2022/06/23 07:28:55;;;;;;;0.10;0.10;;;;;;;;;;5010337;27;92425;-73
2022/06/23 07:31:31;;;;;;;0.20;0.20;;;;;;;;;;5036943;27;94734;-72
2022/06/23 07:34:01;;;;;;;0.10;0.10;;;;;;;;;;5038202;27;93550;-73
2022/06/23 07:36:33;;;;;;;0.20;0.20;;;;;;;;;;5044614;27;92339;-71
2022/06/23 07:39:08;;;;;;;0.10;0.10;;;;;;;;;;5038310;27;93726;-72
2022/06/23 07:41:53;;;;;;;0.43;0.43;;;;;;;;;;5038132;27;92126;-71
2022/06/23 07:44:23;;;;;;;0.17;0.17;;;;;;;;;;5020415;28;94464;-71
2022/06/23 07:46:50;;;;;;;0.10;0.10;;;;;;;;;;5039615;27;93607;-70
2022/06/23 07:49:25;;;;;;;0.10;0.10;;;;;;;;;;5038792;27;91523;-72
2022/06/23 07:51:55;;;;;;;0.10;0.10;;;;;;;;;;5043238;27;92334;-72
2022/06/23 07:54:22;;;;;;;0.10;0.10;;;;;;;;;;5038005;27;93155;-72
2022/06/23 07:56:49;;;;;;;0.20;0.20;;;;;;;;;;5039750;27;94770;-72
2022/06/23 07:59:17;;;;;;;0.15;0.15;;;;;;;;;;5039984;27;95707;-73
2022/06/23 08:01:47;;;;;;;0.15;0.15;;;;;;;;;;5037457;27;92344;-73
2022/06/23 08:04:18;;;;;;;0.20;0.20;;;;;;;;;;5037550;27;93892;-73
2022/06/23 08:06:44;;;;;;;0.10;0.10;;;;;;;;;;5037071;27;93530;-74
2022/06/23 08:09:31;;;;;;;0.10;0.10;;;;;;;;;;5019497;27;92347;-73
2022/06/23 08:14:49;;;;;;;0.10;0.10;;;;;;;;;;5039701;27;92695;-74
2022/06/23 08:17:17;;;;;;;2.10;0.50;;;;;;;;;;5038302;27;92366;-73
2022/06/23 08:19:55;;;;;;;0.20;0.20;;;;;;;;;;5037272;27;93257;-74
2022/06/23 08:22:24;;;;;;;0.10;0.10;;;;;;;;;;5038818;27;96250;-74
2022/06/23 08:25:00;;;;;;;0.20;0.20;;;;;;;;;;5040568;27;95718;-72
2022/06/23 08:27:47;;;;;;;0.20;0.20;;;;;;;;;;5036898;27;93573;-72
2022/06/23 08:30:16;;;;;;;0.15;0.15;;;;;;;;;;5037323;27;92311;-72
2022/06/23 08:32:47;;;;;;;0.15;0.15;;;;;;;;;;5037286;27;93129;-72
2022/06/23 08:35:27;;;;;;;0.20;0.20;;;;;;;;;;5040266;27;94093;-72
2022/06/23 08:38:02;;;;;;;0.10;0.10;;;;;;;;;;5037519;27;92282;-73
2022/06/23 08:40:50;;;;;;;0.20;0.20;;;;;;;;;;5037758;27;91729;-73
2022/06/23 08:43:35;;;;;;;0.20;0.20;;;;;;;;;;5036976;27;93025;-76
2022/06/23 08:46:27;;;;;;;0.20;0.20;;;;;;;;;;5039861;27;92077;-74
2022/06/23 08:49:08;;;;;;;0.20;0.20;;;;;;;;;;5035026;27;96134;-78
2022/06/23 08:52:06;;;;;;;0.20;0.20;;;;;;;;;;5036900;27;92452;-79
2022/06/23 08:54:41;;;;;;;0.20;0.20;;;;;;;;;;4989136;27;93276;-76
2022/06/23 08:57:10;;;;;;;0.20;0.20;;;;;;;;;;5036387;27;93411;-76
2022/06/23 08:59:46;;;;;;;1.08;0.57;;;;;;;;;;5036374;27;93380;-76
2022/06/23 09:02:18;;;;;;;0.20;0.20;;;;;;;;;;5036732;27;92721;-76
2022/06/23 09:05:05;;;;;;;0.17;0.17;;;;;;;;;;5037095;27;92745;-75
2022/06/23 09:07:41;;;;;;;0.17;0.17;;;;;;;;;;5037136;27;91559;-76
2022/06/23 09:10:15;;;;;;;0.20;0.20;;;;;;;;;;5024375;27;93689;-78
2022/06/23 09:12:47;;;;;;;0.25;0.25;;;;;;;;;;5036685;27;92360;-76
2022/06/23 09:15:23;;;;;;;0.30;0.30;;;;;;;;;;5036172;27;95675;-75
2022/06/23 09:18:01;;;;;;;0.30;0.30;;;;;;;;;;5036494;27;93579;-76
2022/06/23 09:20:41;;;;;;;0.20;0.20;;;;;;;;;;5036730;27;92365;-75
2022/06/23 09:23:16;;;;;;;0.30;0.30;;;;;;;;;;5036545;27;94310;-73
2022/06/23 09:26:01;;;;;;;0.30;0.30;;;;;;;;;;5037558;27;93694;-73
2022/06/23 09:28:33;;;;;;;0.20;0.20;;;;;;;;;;5018282;27;92327;-73
2022/06/23 09:31:00;;;;;;;0.20;0.20;;;;;;;;;;5038855;27;93840;-73
2022/06/23 09:33:45;;;;;;;0.20;0.20;;;;;;;;;;5036970;27;91558;-74
2022/06/23 09:36:21;;;;;;;0.20;0.20;;;;;;;;;;5038215;27;92557;-72
2022/06/23 09:39:07;;;;;;;0.20;0.20;;;;;;;;;;5036320;27;93553;-76
2022/06/23 09:41:42;;;;;;;0.20;0.20;;;;;;;;;;5034697;27;94717;-76
2022/06/23 09:44:27;;;;;;;0.30;0.30;;;;;;;;;;5035864;27;96368;-74
2022/06/23 09:46:53;;;;;;;0.20;0.20;;;;;;;;;;5036249;27;94465;-74
2022/06/23 09:49:38;;;;;;;0.20;0.20;;;;;;;;;;5036359;27;92260;-74
2022/06/23 09:52:05;;;;;;;0.22;0.22;;;;;;;;;;5036123;27;93410;-75
2022/06/23 09:54:50;;;;;;;0.30;0.30;;;;;;;;;;5038316;27;93606;-74
2022/06/23 09:57:31;;;;;;;0.35;0.35;;;;;;;;;;5036311;27;93600;-73
2022/06/23 10:00:09;;;;;;;0.40;0.40;;;;;;;;;;5036325;27;92807;-75
2022/06/23 10:02:54;;;;;;;0.30;0.30;;;;;;;;;;5033170;27;92356;-76
2022/06/23 10:05:27;;;;;;;0.40;0.40;;;;;;;;;;5025914;27;94072;-75
2022/06/23 10:08:02;;;;;;;0.20;0.20;;;;;;;;;;5034106;27;96212;-74
2022/06/23 10:10:44;;;;;;;0.20;0.20;;;;;;;;;;5038617;27;93459;-74
2022/06/23 10:13:23;;;;;;;0.20;0.20;;;;;;;;;;5039567;27;93747;-75
2022/06/23 10:16:04;;;;;;;0.40;0.40;;;;;;;;;;5043039;27;93539;-76
2022/06/23 10:18:30;;;;;;;;;;;;;;;;;;5043087;27;92384;-72
2022/06/23 10:21:07;;;;;;;0.30;0.30;;;;;;;;;;5038274;27;122900;-75
2022/06/23 10:23:52;;;;;;;0.20;0.20;;;;;;;;;;5021368;27;92368;-73
2022/06/23 10:26:40;;;;;;;0.30;0.30;;;;;;;;;;5043845;27;93332;-73
2022/06/23 10:29:19;;;;;;;0.40;0.40;;;;;;;;;;5039310;27;93648;-77
2022/06/23 10:32:23;;;;;;;0.20;0.20;;;;;;;;;;5039216;27;92277;-75
2022/06/23 10:35:09;;;;;;;0.32;0.32;;;;;;;;;;4974635;28;95434;-73
2022/06/23 10:37:54;;;;;;;0.50;0.50;;;;;;;;;;4977031;28;93182;-75
2022/06/23 10:40:30;;;;;;;0.20;0.20;;;;;;;;;;5026583;27;92484;-73
2022/06/23 10:43:16;;;;;;;0.20;0.20;;;;;;;;;;5041720;27;92742;-74
2022/06/23 10:45:43;;;;;;;0.25;0.25;;;;;;;;;;5039577;27;93794;-74
2022/06/23 10:48:21;;;;;;;0.20;0.20;;;;;;;;;;5038649;27;92633;-74
2022/06/23 10:50:48;;;;;;;0.30;0.30;;;;;;;;;;5038703;27;93135;-74
2022/06/23 10:53:25;;;;;;;0.20;0.20;;;;;;;;;;5039606;27;91564;-78
2022/06/23 10:56:01;;;;;;;0.28;0.28;;;;;;;;;;5040090;27;92303;-75
2022/06/23 10:58:31;;;;;;;0.20;0.20;;;;;;;;;;5039243;27;93952;-73
2022/06/23 11:00:58;;;;;;;0.20;0.20;;;;;;;;;;5037001;27;94797;-74
2022/06/23 11:03:35;;;;;;;0.22;0.22;;;;;;;;;;5038675;27;95731;-73
2022/06/23 11:06:08;;;;;;;0.30;0.30;;;;;;;;;;5043376;27;93030;-74
2022/06/23 11:08:53;;;;;;;0.20;0.20;;;;;;;;;;5038712;27;93349;-74
2022/06/23 11:11:19;;;;;;;0.30;0.30;;;;;;;;;;5038361;27;93923;-73
2022/06/23 11:13:52;;;;;;;0.20;0.20;;;;;;;;;;5038799;27;92282;-74
2022/06/23 11:16:19;;;;;;;0.40;0.40;;;;;;;;;;5023161;27;93456;-71
2022/06/23 12:06:48;;;;;;;15.93;5.43;;;;;;;;;;4972867;27;1340952;-81
2022/06/23 12:09:33;;;;;;;14.38;5.78;;;;;;;;;;5014797;28;119933;-82
2022/06/23 12:12:01;;;;;;;12.93;5.68;;;;;;;;;;5003775;28;119070;-80
2022/06/23 12:14:28;;;;;;;18.77;6.60;;;;;;;;;;4994992;28;119278;-83
2022/06/23 12:17:00;;;;;;;12.77;5.57;;;;;;;;;;4994536;28;119961;-77
2022/06/23 12:19:33;;;;;;;14.70;5.18;;;;;;;;;;4996175;28;119684;-79
